sensor_id;sensor_type;location;lat;lon;timestamp;temperature;humidity
16785;DHT22;8509;52.178;5.404;2023-05-10T00:01:08;13.50;99.90
16785;DHT22;8509;52.178;5.404;2023-05-10T00:03:34;13.50;99.90
16785;DHT22;8509;52.178;5.404;2023-05-10T00:05:59;13.50;99.90
16785;DHT22;8509;52.178;5.404;2023-05-10T00:08:25;13.50;99.90
16785;DHT22;8509;52.178;5.404;2023-05-10T00:10:52;13.50;99.90
16785;DHT22;8509;52.178;5.404;2023-05-10T00:13:18;13.50;99.90
16785;DHT22;8509;52.178;5.404;2023-05-10T00:15:44;13.40;99.90
16785;DHT22;8509;52.178;5.404;2023-05-10T00:18:09;13.50;99.90
16785;DHT22;8509;52.178;5.404;2023-05-10T00:20:35;13.40;99.90
16785;DHT22;8509;52.178;5.404;2023-05-10T00:23:01;13.40;99.90
16785;DHT22;8509;52.178;5.404;2023-05-10T00:25:26;13.40;99.90
16785;DHT22;8509;52.178;5.404;2023-05-10T00:27:52;13.40;99.90
16785;DHT22;8509;52.178;5.404;2023-05-10T00:30:20;13.50;99.90
16785;DHT22;8509;52.178;5.404;2023-05-10T00:32:46;13.40;99.90
16785;DHT22;8509;52.178;5.404;2023-05-10T00:35:13;13.40;99.90
16785;DHT22;8509;52.178;5.404;2023-05-10T00:37:39;13.40;99.90
16785;DHT22;8509;52.178;5.404;2023-05-10T00:40:05;13.40;99.90
16785;DHT22;8509;52.178;5.404;2023-05-10T00:42:31;13.40;99.90
16785;DHT22;8509;52.178;5.404;2023-05-10T00:44:57;13.40;99.90
16785;DHT22;8509;52.178;5.404;2023-05-10T00:47:23;13.40;99.90
16785;DHT22;8509;52.178;5.404;2023-05-10T00:49:49;13.40;99.90
16785;DHT22;8509;52.178;5.404;2023-05-10T00:52:15;13.40;99.90
16785;DHT22;8509;52.178;5.404;2023-05-10T00:54:42;13.40;99.90
16785;DHT22;8509;52.178;5.404;2023-05-10T00:57:08;13.40;99.90
16785;DHT22;8509;52.178;5.404;2023-05-10T00:59:34;13.40;99.90
16785;DHT22;8509;52.178;5.404;2023-05-10T01:02:00;13.50;99.90
16785;DHT22;8509;52.178;5.404;2023-05-10T01:04:26;13.40;99.90
16785;DHT22;8509;52.178;5.404;2023-05-10T01:06:53;13.50;99.90
16785;DHT22;8509;52.178;5.404;2023-05-10T01:09:20;13.50;99.90
16785;DHT22;8509;52.178;5.404;2023-05-10T01:11:46;13.50;99.90
16785;DHT22;8509;52.178;5.404;2023-05-10T01:14:12;13.50;99.90
16785;DHT22;8509;52.178;5.404;2023-05-10T01:16:40;13.50;99.90
16785;DHT22;8509;52.178;5.404;2023-05-10T01:19:30;13.60;99.90
16785;DHT22;8509;52.178;5.404;2023-05-10T01:35:41;13.70;99.90
16785;DHT22;8509;52.178;5.404;2023-05-10T01:43:30;13.70;99.90
16785;DHT22;8509;52.178;5.404;2023-05-10T01:46:14;13.70;99.90
16785;DHT22;8509;52.178;5.404;2023-05-10T01:48:47;13.70;99.90
16785;DHT22;8509;52.178;5.404;2023-05-10T01:51:23;13.70;99.90
16785;DHT22;8509;52.178;5.404;2023-05-10T01:53:50;13.80;99.90
16785;DHT22;8509;52.178;5.404;2023-05-10T01:56:19;13.80;99.90
16785;DHT22;8509;52.178;5.404;2023-05-10T01:58:48;13.70;99.90
16785;DHT22;8509;52.178;5.404;2023-05-10T02:01:15;13.80;99.90
16785;DHT22;8509;52.178;5.404;2023-05-10T02:03:42;13.70;99.90
16785;DHT22;8509;52.178;5.404;2023-05-10T02:06:10;13.80;99.90
16785;DHT22;8509;52.178;5.404;2023-05-10T02:08:38;13.80;99.90
16785;DHT22;8509;52.178;5.404;2023-05-10T02:11:05;13.80;99.90
16785;DHT22;8509;52.178;5.404;2023-05-10T02:13:34;13.70;99.90
16785;DHT22;8509;52.178;5.404;2023-05-10T02:16:01;13.70;99.90
16785;DHT22;8509;52.178;5.404;2023-05-10T02:18:29;13.70;99.90
16785;DHT22;8509;52.178;5.404;2023-05-10T02:20:57;13.60;99.90
16785;DHT22;8509;52.178;5.404;2023-05-10T02:23:23;13.50;99.90
16785;DHT22;8509;52.178;5.404;2023-05-10T02:25:51;13.40;99.90
16785;DHT22;8509;52.178;5.404;2023-05-10T02:28:19;13.40;99.90
16785;DHT22;8509;52.178;5.404;2023-05-10T02:30:47;13.40;99.90
16785;DHT22;8509;52.178;5.404;2023-05-10T02:33:13;13.50;99.90
16785;DHT22;8509;52.178;5.404;2023-05-10T02:35:39;13.40;99.90
16785;DHT22;8509;52.178;5.404;2023-05-10T02:38:06;13.50;99.90
16785;DHT22;8509;52.178;5.404;2023-05-10T02:40:33;13.50;99.90
16785;DHT22;8509;52.178;5.404;2023-05-10T02:43:01;13.60;99.90
16785;DHT22;8509;52.178;5.404;2023-05-10T02:45:30;13.60;99.90
16785;DHT22;8509;52.178;5.404;2023-05-10T02:47:56;13.60;99.90
16785;DHT22;8509;52.178;5.404;2023-05-10T02:50:26;13.50;99.90
16785;DHT22;8509;52.178;5.404;2023-05-10T02:52:56;13.60;99.90
16785;DHT22;8509;52.178;5.404;2023-05-10T02:55:27;13.60;99.90
16785;DHT22;8509;52.178;5.404;2023-05-10T02:58:00;13.70;99.90
16785;DHT22;8509;52.178;5.404;2023-05-10T03:00:25;13.60;99.90
16785;DHT22;8509;52.178;5.404;2023-05-10T03:02:51;13.60;99.90
16785;DHT22;8509;52.178;5.404;2023-05-10T03:05:17;13.60;99.90
16785;DHT22;8509;52.178;5.404;2023-05-10T03:07:43;13.60;99.90
16785;DHT22;8509;52.178;5.404;2023-05-10T03:10:09;13.60;99.90
16785;DHT22;8509;52.178;5.404;2023-05-10T03:15:39;13.40;99.90
16785;DHT22;8509;52.178;5.404;2023-05-10T03:18:15;13.40;99.90
16785;DHT22;8509;52.178;5.404;2023-05-10T03:20:43;13.40;99.90
16785;DHT22;8509;52.178;5.404;2023-05-10T03:23:19;13.40;99.90
16785;DHT22;8509;52.178;5.404;2023-05-10T03:25:48;13.30;99.90
16785;DHT22;8509;52.178;5.404;2023-05-10T03:28:15;13.40;99.90
16785;DHT22;8509;52.178;5.404;2023-05-10T03:30:43;13.40;99.90
16785;DHT22;8509;52.178;5.404;2023-05-10T03:33:09;13.40;99.90
16785;DHT22;8509;52.178;5.404;2023-05-10T03:35:34;13.40;99.90
16785;DHT22;8509;52.178;5.404;2023-05-10T03:38:01;13.40;99.90
16785;DHT22;8509;52.178;5.404;2023-05-10T03:40:27;13.40;99.90
16785;DHT22;8509;52.178;5.404;2023-05-10T03:43:00;13.40;99.90
16785;DHT22;8509;52.178;5.404;2023-05-10T03:45:26;13.40;99.90
16785;DHT22;8509;52.178;5.404;2023-05-10T03:47:52;13.50;99.90
16785;DHT22;8509;52.178;5.404;2023-05-10T03:50:18;13.40;99.90
16785;DHT22;8509;52.178;5.404;2023-05-10T03:52:44;13.40;99.90
16785;DHT22;8509;52.178;5.404;2023-05-10T03:55:10;13.40;99.90
16785;DHT22;8509;52.178;5.404;2023-05-10T03:57:35;13.40;99.90
16785;DHT22;8509;52.178;5.404;2023-05-10T04:00:02;13.40;99.90
16785;DHT22;8509;52.178;5.404;2023-05-10T04:02:28;13.40;99.90
16785;DHT22;8509;52.178;5.404;2023-05-10T04:04:55;13.50;99.90
16785;DHT22;8509;52.178;5.404;2023-05-10T04:07:21;13.40;99.90
16785;DHT22;8509;52.178;5.404;2023-05-10T04:09:47;13.40;99.90
16785;DHT22;8509;52.178;5.404;2023-05-10T04:12:13;13.40;99.90
16785;DHT22;8509;52.178;5.404;2023-05-10T04:14:38;13.40;99.90
16785;DHT22;8509;52.178;5.404;2023-05-10T04:17:05;13.50;99.90
16785;DHT22;8509;52.178;5.404;2023-05-10T04:19:31;13.40;99.90
16785;DHT22;8509;52.178;5.404;2023-05-10T04:21:58;13.50;99.90
16785;DHT22;8509;52.178;5.404;2023-05-10T04:24:24;13.40;99.90
16785;DHT22;8509;52.178;5.404;2023-05-10T04:26:50;13.40;99.90
16785;DHT22;8509;52.178;5.404;2023-05-10T04:29:16;13.30;99.90
16785;DHT22;8509;52.178;5.404;2023-05-10T04:31:41;13.40;99.90
16785;DHT22;8509;52.178;5.404;2023-05-10T04:34:07;13.40;99.90
16785;DHT22;8509;52.178;5.404;2023-05-10T04:36:32;13.40;99.90
16785;DHT22;8509;52.178;5.404;2023-05-10T04:39:01;13.30;99.90
16785;DHT22;8509;52.178;5.404;2023-05-10T04:41:28;13.30;99.90
16785;DHT22;8509;52.178;5.404;2023-05-10T04:43:54;13.30;99.90
16785;DHT22;8509;52.178;5.404;2023-05-10T04:46:20;13.30;99.90
16785;DHT22;8509;52.178;5.404;2023-05-10T04:48:45;13.40;99.90
16785;DHT22;8509;52.178;5.404;2023-05-10T04:51:11;13.40;99.90
16785;DHT22;8509;52.178;5.404;2023-05-10T04:53:37;13.40;99.90
16785;DHT22;8509;52.178;5.404;2023-05-10T04:56:03;13.40;99.90
16785;DHT22;8509;52.178;5.404;2023-05-10T04:58:29;13.40;99.90
16785;DHT22;8509;52.178;5.404;2023-05-10T05:00:54;13.40;99.90
16785;DHT22;8509;52.178;5.404;2023-05-10T05:03:20;13.50;99.90
16785;DHT22;8509;52.178;5.404;2023-05-10T05:05:46;13.50;99.90
16785;DHT22;8509;52.178;5.404;2023-05-10T05:08:11;13.60;99.90
16785;DHT22;8509;52.178;5.404;2023-05-10T05:10:37;13.60;99.90
16785;DHT22;8509;52.178;5.404;2023-05-10T05:13:02;13.60;99.90
16785;DHT22;8509;52.178;5.404;2023-05-10T05:15:28;13.50;99.90
16785;DHT22;8509;52.178;5.404;2023-05-10T05:17:53;13.50;99.90
16785;DHT22;8509;52.178;5.404;2023-05-10T05:20:19;13.60;99.90
16785;DHT22;8509;52.178;5.404;2023-05-10T05:22:45;13.60;99.90
16785;DHT22;8509;52.178;5.404;2023-05-10T05:25:11;13.50;99.90
16785;DHT22;8509;52.178;5.404;2023-05-10T05:27:37;13.60;99.90
16785;DHT22;8509;52.178;5.404;2023-05-10T05:30:03;13.50;99.90
16785;DHT22;8509;52.178;5.404;2023-05-10T05:32:29;13.60;99.90
16785;DHT22;8509;52.178;5.404;2023-05-10T05:34:56;13.50;99.90
16785;DHT22;8509;52.178;5.404;2023-05-10T05:37:21;13.60;99.90
16785;DHT22;8509;52.178;5.404;2023-05-10T05:39:48;13.60;99.90
16785;DHT22;8509;52.178;5.404;2023-05-10T05:42:14;13.70;99.90
16785;DHT22;8509;52.178;5.404;2023-05-10T05:44:41;13.70;99.90
16785;DHT22;8509;52.178;5.404;2023-05-10T05:47:06;13.70;99.90
16785;DHT22;8509;52.178;5.404;2023-05-10T05:49:32;13.60;99.90
16785;DHT22;8509;52.178;5.404;2023-05-10T05:51:59;13.60;99.90
16785;DHT22;8509;52.178;5.404;2023-05-10T05:54:26;13.60;99.90
16785;DHT22;8509;52.178;5.404;2023-05-10T05:56:57;13.60;99.90
16785;DHT22;8509;52.178;5.404;2023-05-10T05:59:23;13.50;99.90
16785;DHT22;8509;52.178;5.404;2023-05-10T06:01:49;13.50;99.90
16785;DHT22;8509;52.178;5.404;2023-05-10T06:04:15;13.50;99.90
16785;DHT22;8509;52.178;5.404;2023-05-10T06:06:40;13.60;99.90
16785;DHT22;8509;52.178;5.404;2023-05-10T06:09:06;13.50;99.90
16785;DHT22;8509;52.178;5.404;2023-05-10T06:11:32;13.40;99.90
16785;DHT22;8509;52.178;5.404;2023-05-10T06:13:58;13.30;99.90
16785;DHT22;8509;52.178;5.404;2023-05-10T06:16:24;13.40;99.90
16785;DHT22;8509;52.178;5.404;2023-05-10T06:18:50;13.40;99.90
16785;DHT22;8509;52.178;5.404;2023-05-10T06:21:16;13.50;99.90
16785;DHT22;8509;52.178;5.404;2023-05-10T06:23:42;13.40;99.90
16785;DHT22;8509;52.178;5.404;2023-05-10T06:26:07;13.30;99.90
16785;DHT22;8509;52.178;5.404;2023-05-10T06:28:33;13.60;99.90
16785;DHT22;8509;52.178;5.404;2023-05-10T06:30:59;13.70;99.90
16785;DHT22;8509;52.178;5.404;2023-05-10T06:33:25;13.80;99.90
16785;DHT22;8509;52.178;5.404;2023-05-10T06:35:51;13.90;99.90
16785;DHT22;8509;52.178;5.404;2023-05-10T06:38:17;14.00;99.90
16785;DHT22;8509;52.178;5.404;2023-05-10T06:40:42;14.20;99.90
16785;DHT22;8509;52.178;5.404;2023-05-10T06:43:09;14.30;99.90
16785;DHT22;8509;52.178;5.404;2023-05-10T06:45:34;14.40;99.90
16785;DHT22;8509;52.178;5.404;2023-05-10T06:48:00;14.40;99.90
16785;DHT22;8509;52.178;5.404;2023-05-10T06:50:26;14.40;99.90
16785;DHT22;8509;52.178;5.404;2023-05-10T06:52:52;14.50;99.90
16785;DHT22;8509;52.178;5.404;2023-05-10T06:55:17;14.50;99.90
16785;DHT22;8509;52.178;5.404;2023-05-10T06:57:43;14.60;99.90
16785;DHT22;8509;52.178;5.404;2023-05-10T07:00:09;14.40;99.90
16785;DHT22;8509;52.178;5.404;2023-05-10T07:02:35;14.30;99.90
16785;DHT22;8509;52.178;5.404;2023-05-10T07:05:01;14.40;99.90
16785;DHT22;8509;52.178;5.404;2023-05-10T07:07:27;14.50;99.90
16785;DHT22;8509;52.178;5.404;2023-05-10T07:09:54;14.30;99.90
16785;DHT22;8509;52.178;5.404;2023-05-10T07:12:19;14.40;99.90
16785;DHT22;8509;52.178;5.404;2023-05-10T07:14:45;14.40;99.90
16785;DHT22;8509;52.178;5.404;2023-05-10T07:17:11;14.50;99.90
16785;DHT22;8509;52.178;5.404;2023-05-10T07:19:37;14.30;99.90
16785;DHT22;8509;52.178;5.404;2023-05-10T07:22:03;14.40;99.90
16785;DHT22;8509;52.178;5.404;2023-05-10T07:24:28;14.40;99.90
16785;DHT22;8509;52.178;5.404;2023-05-10T07:26:55;14.50;99.90
16785;DHT22;8509;52.178;5.404;2023-05-10T07:29:20;14.70;99.90
16785;DHT22;8509;52.178;5.404;2023-05-10T07:31:46;15.00;99.90
16785;DHT22;8509;52.178;5.404;2023-05-10T07:34:11;15.00;99.90
16785;DHT22;8509;52.178;5.404;2023-05-10T07:36:37;15.20;99.90
16785;DHT22;8509;52.178;5.404;2023-05-10T07:39:03;15.10;99.90
16785;DHT22;8509;52.178;5.404;2023-05-10T07:41:29;15.00;99.90
16785;DHT22;8509;52.178;5.404;2023-05-10T07:43:55;15.20;99.90
16785;DHT22;8509;52.178;5.404;2023-05-10T07:46:20;15.20;99.90
16785;DHT22;8509;52.178;5.404;2023-05-10T07:48:46;15.20;99.90
16785;DHT22;8509;52.178;5.404;2023-05-10T07:51:12;15.30;99.90
16785;DHT22;8509;52.178;5.404;2023-05-10T07:53:38;15.40;99.90
16785;DHT22;8509;52.178;5.404;2023-05-10T07:56:27;15.40;99.90
16785;DHT22;8509;52.178;5.404;2023-05-10T07:58:59;15.50;99.90
16785;DHT22;8509;52.178;5.404;2023-05-10T08:01:26;15.50;99.90
16785;DHT22;8509;52.178;5.404;2023-05-10T08:03:52;15.50;99.90
16785;DHT22;8509;52.178;5.404;2023-05-10T08:06:19;15.20;99.90
16785;DHT22;8509;52.178;5.404;2023-05-10T08:08:46;15.00;99.90
16785;DHT22;8509;52.178;5.404;2023-05-10T08:11:15;15.00;99.90
16785;DHT22;8509;52.178;5.404;2023-05-10T08:13:41;15.00;99.90
16785;DHT22;8509;52.178;5.404;2023-05-10T08:16:07;15.10;99.90
16785;DHT22;8509;52.178;5.404;2023-05-10T08:18:32;15.00;99.90
16785;DHT22;8509;52.178;5.404;2023-05-10T08:20:58;14.80;99.90
16785;DHT22;8509;52.178;5.404;2023-05-10T08:23:24;14.70;99.90
16785;DHT22;8509;52.178;5.404;2023-05-10T08:25:49;14.60;99.90
16785;DHT22;8509;52.178;5.404;2023-05-10T08:28:15;14.70;99.90
16785;DHT22;8509;52.178;5.404;2023-05-10T08:30:40;14.60;99.90
16785;DHT22;8509;52.178;5.404;2023-05-10T08:33:06;14.70;99.90
16785;DHT22;8509;52.178;5.404;2023-05-10T08:35:32;14.70;99.90
16785;DHT22;8509;52.178;5.404;2023-05-10T08:37:58;14.50;99.90
16785;DHT22;8509;52.178;5.404;2023-05-10T08:40:24;14.50;99.90
16785;DHT22;8509;52.178;5.404;2023-05-10T08:43:05;14.50;99.90
16785;DHT22;8509;52.178;5.404;2023-05-10T08:45:33;14.50;99.90
16785;DHT22;8509;52.178;5.404;2023-05-10T08:48:02;14.70;99.90
16785;DHT22;8509;52.178;5.404;2023-05-10T08:50:28;14.80;99.90
16785;DHT22;8509;52.178;5.404;2023-05-10T08:52:59;14.70;99.90
16785;DHT22;8509;52.178;5.404;2023-05-10T08:55:26;15.30;99.90
16785;DHT22;8509;52.178;5.404;2023-05-10T08:57:54;15.60;99.90
16785;DHT22;8509;52.178;5.404;2023-05-10T09:00:20;16.10;99.90
16785;DHT22;8509;52.178;5.404;2023-05-10T09:02:49;16.50;99.90
16785;DHT22;8509;52.178;5.404;2023-05-10T09:05:15;16.80;99.90
16785;DHT22;8509;52.178;5.404;2023-05-10T09:07:41;17.10;99.90
16785;DHT22;8509;52.178;5.404;2023-05-10T09:10:09;17.10;99.90
16785;DHT22;8509;52.178;5.404;2023-05-10T09:12:36;17.10;99.90
16785;DHT22;8509;52.178;5.404;2023-05-10T09:15:02;17.60;99.90
16785;DHT22;8509;52.178;5.404;2023-05-10T09:17:29;17.70;99.90
16785;DHT22;8509;52.178;5.404;2023-05-10T09:20:03;18.00;99.90
16785;DHT22;8509;52.178;5.404;2023-05-10T09:22:30;18.40;99.90
16785;DHT22;8509;52.178;5.404;2023-05-10T09:27:36;18.90;99.90
16785;DHT22;8509;52.178;5.404;2023-05-10T09:30:06;19.20;99.90
16785;DHT22;8509;52.178;5.404;2023-05-10T09:32:41;19.20;99.90
16785;DHT22;8509;52.178;5.404;2023-05-10T09:35:15;19.70;99.90
16785;DHT22;8509;52.178;5.404;2023-05-10T09:37:42;20.20;99.90
16785;DHT22;8509;52.178;5.404;2023-05-10T09:40:11;20.60;99.90
16785;DHT22;8509;52.178;5.404;2023-05-10T09:42:38;20.50;99.90
16785;DHT22;8509;52.178;5.404;2023-05-10T09:45:04;20.40;99.90
16785;DHT22;8509;52.178;5.404;2023-05-10T09:47:36;20.20;99.90
16785;DHT22;8509;52.178;5.404;2023-05-10T09:50:06;20.50;99.90
16785;DHT22;8509;52.178;5.404;2023-05-10T09:52:50;20.30;99.90
16785;DHT22;8509;52.178;5.404;2023-05-10T09:55:24;20.20;99.90
16785;DHT22;8509;52.178;5.404;2023-05-10T09:58:01;20.10;99.90
16785;DHT22;8509;52.178;5.404;2023-05-10T10:00:28;19.70;99.90
16785;DHT22;8509;52.178;5.404;2023-05-10T10:02:58;19.30;99.90
16785;DHT22;8509;52.178;5.404;2023-05-10T10:05:35;19.10;99.90
16785;DHT22;8509;52.178;5.404;2023-05-10T10:08:05;19.00;99.90
16785;DHT22;8509;52.178;5.404;2023-05-10T10:10:32;18.60;99.90
16785;DHT22;8509;52.178;5.404;2023-05-10T10:12:58;18.60;99.90
16785;DHT22;8509;52.178;5.404;2023-05-10T10:15:24;18.60;99.90
16785;DHT22;8509;52.178;5.404;2023-05-10T10:17:51;18.70;99.90
16785;DHT22;8509;52.178;5.404;2023-05-10T10:20:20;19.00;99.90
16785;DHT22;8509;52.178;5.404;2023-05-10T10:22:47;19.10;99.90
16785;DHT22;8509;52.178;5.404;2023-05-10T10:25:15;19.60;99.90
16785;DHT22;8509;52.178;5.404;2023-05-10T10:36:02;19.90;99.90
16785;DHT22;8509;52.178;5.404;2023-05-10T10:41:11;19.00;99.90
16785;DHT22;8509;52.178;5.404;2023-05-10T10:54:54;18.80;99.90
16785;DHT22;8509;52.178;5.404;2023-05-10T10:57:26;18.90;99.90
16785;DHT22;8509;52.178;5.404;2023-05-10T11:00:22;18.90;99.90
16785;DHT22;8509;52.178;5.404;2023-05-10T11:02:59;18.70;99.90
16785;DHT22;8509;52.178;5.404;2023-05-10T11:05:46;19.00;99.90
16785;DHT22;8509;52.178;5.404;2023-05-10T11:08:28;19.20;99.90
16785;DHT22;8509;52.178;5.404;2023-05-10T11:13:30;19.10;99.90
16785;DHT22;8509;52.178;5.404;2023-05-10T11:15:56;19.40;99.90
16785;DHT22;8509;52.178;5.404;2023-05-10T11:18:29;19.80;99.90
16785;DHT22;8509;52.178;5.404;2023-05-10T11:21:00;20.00;99.90
16785;DHT22;8509;52.178;5.404;2023-05-10T11:23:52;19.90;99.90
16785;DHT22;8509;52.178;5.404;2023-05-10T11:26:21;20.10;99.90
16785;DHT22;8509;52.178;5.404;2023-05-10T11:28:49;20.00;99.90
16785;DHT22;8509;52.178;5.404;2023-05-10T11:31:16;20.00;99.90
16785;DHT22;8509;52.178;5.404;2023-05-10T11:33:46;19.60;99.90
16785;DHT22;8509;52.178;5.404;2023-05-10T11:36:16;19.60;99.90
16785;DHT22;8509;52.178;5.404;2023-05-10T11:38:44;19.80;99.90
16785;DHT22;8509;52.178;5.404;2023-05-10T11:41:10;20.00;99.90
16785;DHT22;8509;52.178;5.404;2023-05-10T11:43:38;20.10;99.90
16785;DHT22;8509;52.178;5.404;2023-05-10T11:46:10;20.50;99.90
16785;DHT22;8509;52.178;5.404;2023-05-10T11:48:39;20.60;99.90
16785;DHT22;8509;52.178;5.404;2023-05-10T11:51:06;20.50;99.90
16785;DHT22;8509;52.178;5.404;2023-05-10T11:53:33;20.40;99.90
16785;DHT22;8509;52.178;5.404;2023-05-10T11:56:09;20.50;99.90
16785;DHT22;8509;52.178;5.404;2023-05-10T11:58:36;20.30;99.90
16785;DHT22;8509;52.178;5.404;2023-05-10T12:01:03;19.70;99.90
16785;DHT22;8509;52.178;5.404;2023-05-10T12:03:30;19.40;99.90
16785;DHT22;8509;52.178;5.404;2023-05-10T12:05:57;19.50;99.90
16785;DHT22;8509;52.178;5.404;2023-05-10T12:08:28;19.30;99.90
16785;DHT22;8509;52.178;5.404;2023-05-10T12:11:07;19.20;99.90
16785;DHT22;8509;52.178;5.404;2023-05-10T12:13:41;19.00;99.90
16785;DHT22;8509;52.178;5.404;2023-05-10T12:16:21;19.00;99.90
16785;DHT22;8509;52.178;5.404;2023-05-10T12:18:52;19.30;99.90
16785;DHT22;8509;52.178;5.404;2023-05-10T12:21:19;19.70;99.90
16785;DHT22;8509;52.178;5.404;2023-05-10T12:23:46;19.70;99.90
16785;DHT22;8509;52.178;5.404;2023-05-10T12:26:12;20.10;99.90
16785;DHT22;8509;52.178;5.404;2023-05-10T12:28:39;20.20;99.90
16785;DHT22;8509;52.178;5.404;2023-05-10T12:31:06;20.20;99.90
16785;DHT22;8509;52.178;5.404;2023-05-10T12:33:42;20.40;99.90
16785;DHT22;8509;52.178;5.404;2023-05-10T12:36:14;20.70;99.90
16785;DHT22;8509;52.178;5.404;2023-05-10T12:38:44;20.90;99.90
16785;DHT22;8509;52.178;5.404;2023-05-10T12:41:14;21.10;99.90
16785;DHT22;8509;52.178;5.404;2023-05-10T12:43:40;21.60;99.90
16785;DHT22;8509;52.178;5.404;2023-05-10T12:46:14;21.90;99.90
16785;DHT22;8509;52.178;5.404;2023-05-10T12:48:41;21.80;99.90
16785;DHT22;8509;52.178;5.404;2023-05-10T12:51:08;21.90;99.90
16785;DHT22;8509;52.178;5.404;2023-05-10T12:53:35;21.80;99.90
16785;DHT22;8509;52.178;5.404;2023-05-10T12:56:01;21.50;99.90
16785;DHT22;8509;52.178;5.404;2023-05-10T12:58:27;21.50;99.90
16785;DHT22;8509;52.178;5.404;2023-05-10T13:00:52;21.30;99.90
16785;DHT22;8509;52.178;5.404;2023-05-10T13:03:18;21.30;99.90
16785;DHT22;8509;52.178;5.404;2023-05-10T13:05:44;21.30;99.90
16785;DHT22;8509;52.178;5.404;2023-05-10T13:08:10;21.30;99.90
16785;DHT22;8509;52.178;5.404;2023-05-10T13:10:36;21.40;99.90
16785;DHT22;8509;52.178;5.404;2023-05-10T13:13:01;21.30;99.90
16785;DHT22;8509;52.178;5.404;2023-05-10T13:15:28;21.10;99.90
16785;DHT22;8509;52.178;5.404;2023-05-10T13:17:54;21.20;99.90
16785;DHT22;8509;52.178;5.404;2023-05-10T13:20:20;21.10;99.90
16785;DHT22;8509;52.178;5.404;2023-05-10T13:22:46;20.90;99.90
16785;DHT22;8509;52.178;5.404;2023-05-10T13:25:12;20.20;99.90
16785;DHT22;8509;52.178;5.404;2023-05-10T13:27:39;20.00;99.90
16785;DHT22;8509;52.178;5.404;2023-05-10T13:30:07;19.70;99.90
16785;DHT22;8509;52.178;5.404;2023-05-10T13:32:33;19.40;99.90
16785;DHT22;8509;52.178;5.404;2023-05-10T13:34:59;19.00;99.90
16785;DHT22;8509;52.178;5.404;2023-05-10T13:37:24;18.30;99.90
16785;DHT22;8509;52.178;5.404;2023-05-10T13:39:50;18.00;99.90
16785;DHT22;8509;52.178;5.404;2023-05-10T13:42:16;17.70;99.90
16785;DHT22;8509;52.178;5.404;2023-05-10T13:44:42;17.60;99.90
16785;DHT22;8509;52.178;5.404;2023-05-10T13:47:08;17.40;99.90
16785;DHT22;8509;52.178;5.404;2023-05-10T13:49:33;17.10;99.90
16785;DHT22;8509;52.178;5.404;2023-05-10T13:52:00;17.00;99.90
16785;DHT22;8509;52.178;5.404;2023-05-10T13:54:35;16.90;99.90
16785;DHT22;8509;52.178;5.404;2023-05-10T13:57:01;16.90;99.90
16785;DHT22;8509;52.178;5.404;2023-05-10T13:59:26;16.80;99.90
16785;DHT22;8509;52.178;5.404;2023-05-10T14:01:52;16.70;99.90
16785;DHT22;8509;52.178;5.404;2023-05-10T14:04:18;16.60;99.90
16785;DHT22;8509;52.178;5.404;2023-05-10T14:06:43;16.70;99.90
16785;DHT22;8509;52.178;5.404;2023-05-10T14:09:09;16.60;99.90
16785;DHT22;8509;52.178;5.404;2023-05-10T14:11:35;16.60;99.90
16785;DHT22;8509;52.178;5.404;2023-05-10T14:14:01;16.60;99.90
16785;DHT22;8509;52.178;5.404;2023-05-10T14:16:26;16.70;99.90
16785;DHT22;8509;52.178;5.404;2023-05-10T14:18:52;16.60;99.90
16785;DHT22;8509;52.178;5.404;2023-05-10T14:21:18;16.70;99.90
16785;DHT22;8509;52.178;5.404;2023-05-10T14:23:44;16.50;99.90
16785;DHT22;8509;52.178;5.404;2023-05-10T14:26:09;16.50;99.90
16785;DHT22;8509;52.178;5.404;2023-05-10T14:28:35;16.60;99.90
16785;DHT22;8509;52.178;5.404;2023-05-10T14:31:01;16.50;99.90
16785;DHT22;8509;52.178;5.404;2023-05-10T14:33:26;16.50;99.90
16785;DHT22;8509;52.178;5.404;2023-05-10T14:35:54;16.40;99.90
16785;DHT22;8509;52.178;5.404;2023-05-10T14:38:21;16.40;99.90
16785;DHT22;8509;52.178;5.404;2023-05-10T14:40:47;16.50;99.90
16785;DHT22;8509;52.178;5.404;2023-05-10T14:43:13;16.50;99.90
16785;DHT22;8509;52.178;5.404;2023-05-10T14:45:38;16.50;99.90
16785;DHT22;8509;52.178;5.404;2023-05-10T14:48:04;16.40;99.90
16785;DHT22;8509;52.178;5.404;2023-05-10T14:50:30;16.40;99.90
16785;DHT22;8509;52.178;5.404;2023-05-10T14:52:57;16.40;99.90
16785;DHT22;8509;52.178;5.404;2023-05-10T14:55:22;16.40;99.90
16785;DHT22;8509;52.178;5.404;2023-05-10T14:57:48;16.40;99.90
16785;DHT22;8509;52.178;5.404;2023-05-10T15:00:16;16.40;99.90
16785;DHT22;8509;52.178;5.404;2023-05-10T15:02:42;16.30;99.90
16785;DHT22;8509;52.178;5.404;2023-05-10T15:05:07;16.30;99.90
16785;DHT22;8509;52.178;5.404;2023-05-10T15:07:42;16.40;99.90
16785;DHT22;8509;52.178;5.404;2023-05-10T15:10:09;16.50;99.90
16785;DHT22;8509;52.178;5.404;2023-05-10T15:12:39;16.60;99.90
16785;DHT22;8509;52.178;5.404;2023-05-10T15:15:05;16.40;99.90
16785;DHT22;8509;52.178;5.404;2023-05-10T15:17:31;16.60;99.90
16785;DHT22;8509;52.178;5.404;2023-05-10T15:19:57;16.70;99.90
16785;DHT22;8509;52.178;5.404;2023-05-10T15:22:23;16.80;99.90
16785;DHT22;8509;52.178;5.404;2023-05-10T15:24:49;16.80;99.90
16785;DHT22;8509;52.178;5.404;2023-05-10T15:27:15;17.10;99.90
16785;DHT22;8509;52.178;5.404;2023-05-10T15:29:41;17.30;99.90
16785;DHT22;8509;52.178;5.404;2023-05-10T15:32:06;17.60;99.90
16785;DHT22;8509;52.178;5.404;2023-05-10T15:34:32;17.60;99.90
16785;DHT22;8509;52.178;5.404;2023-05-10T15:36:58;17.60;99.90
16785;DHT22;8509;52.178;5.404;2023-05-10T15:39:24;17.80;99.90
16785;DHT22;8509;52.178;5.404;2023-05-10T15:41:50;17.90;99.90
16785;DHT22;8509;52.178;5.404;2023-05-10T15:44:18;18.30;99.90
16785;DHT22;8509;52.178;5.404;2023-05-10T15:46:44;18.50;99.90
16785;DHT22;8509;52.178;5.404;2023-05-10T15:49:10;18.50;99.90
16785;DHT22;8509;52.178;5.404;2023-05-10T15:51:36;18.60;99.90
16785;DHT22;8509;52.178;5.404;2023-05-10T15:54:01;18.80;99.90
16785;DHT22;8509;52.178;5.404;2023-05-10T15:56:28;18.80;99.90
16785;DHT22;8509;52.178;5.404;2023-05-10T15:58:54;18.90;99.90
16785;DHT22;8509;52.178;5.404;2023-05-10T16:01:20;18.60;99.90
16785;DHT22;8509;52.178;5.404;2023-05-10T16:03:46;18.90;99.90
16785;DHT22;8509;52.178;5.404;2023-05-10T16:06:11;19.00;99.90
16785;DHT22;8509;52.178;5.404;2023-05-10T16:08:38;19.00;99.90
16785;DHT22;8509;52.178;5.404;2023-05-10T16:11:03;19.00;99.90
16785;DHT22;8509;52.178;5.404;2023-05-10T16:13:29;19.00;99.90
16785;DHT22;8509;52.178;5.404;2023-05-10T16:15:55;18.80;99.90
16785;DHT22;8509;52.178;5.404;2023-05-10T16:18:22;18.70;99.90
16785;DHT22;8509;52.178;5.404;2023-05-10T16:20:48;18.70;99.90
16785;DHT22;8509;52.178;5.404;2023-05-10T16:23:16;18.70;99.90
16785;DHT22;8509;52.178;5.404;2023-05-10T16:25:42;18.70;99.90
16785;DHT22;8509;52.178;5.404;2023-05-10T16:28:11;18.30;99.90
16785;DHT22;8509;52.178;5.404;2023-05-10T16:30:39;18.20;99.90
16785;DHT22;8509;52.178;5.404;2023-05-10T16:33:05;18.00;99.90
16785;DHT22;8509;52.178;5.404;2023-05-10T16:35:31;17.90;99.90